Bingham Lake, MN

12:04 AM CST on February 07, 2016 (GMT -0600)
Windom Municipal

Weather History for KMWM - August, 2012

Change the Weather History Date:

Friday, August 17, 2012

  Actual Average Record
Temperature  
Mean Temperature 58 °F -  
Max Temperature 71 °F 83 °F 100 °F (1988)
Min Temperature 44 °F 60 °F 44 °F (2012)
Degree Days  
Heating Degree Days 8    
Growing Degree Days 8 (Base 50)    
Moisture  
Dew Point 45 °F    
Average Humidity 66    
Maximum Humidity 94    
Minimum Humidity 31    
Precipitation  
Precipitation 0.00 in - - ()
Sea Level Pressure  
Sea Level Pressure 30.10 in    
Wind  
Wind Speed 4 mph (NW)    
Max Wind Speed 12 mph    
Max Gust Speed 16 mph    
Visibility 10 miles    
Events      
Averages and records for this station are not official NWS values.
T = Trace of Precipitation, MM = Missing Value Source: NWS Daily Summary

Daily Weather History Graph

Daily Weather History Graph

Search for Another Location

Airport or City:

Trip Planner

Search our weather history database for the weather conditions in past years. The results will help you decide how hot, cold, wet, or windy it might be!

Date:

Astronomy

Aug. 17, 2012 Rise Set
Actual Time 6:27 AM CDT 8:20 PM CDT
Civil Twilight 5:56 AM CDT 8:51 PM CDT
Nautical Twilight 5:18 AM CDT 9:29 PM CDT
Astronomical Twilight 4:37 AM CDT 10:10 PM CDT
Moon 6:33 AM CDT (8/17) 8:00 PM CDT (8/17)
Length of Visible Light 14h 55m
Length of Day
13h 53m
New Moon, 0% of the Moon is Illuminated
Aug 17
New Moon
Aug 24
First Quarter
Aug 31
Full
Sep 8
Last Quarter
Sep 15
New

Hourly Weather History & Observations

Time (CDT) Temp. Windchill Dew Point Humidity Pressure Visibility Wind Dir Wind Speed Gust Speed Precip Events Conditions
12:13 AM 50.0 °F - 44.6 °F 82% 30.09 in 10.0 mi West 5.8 mph - N/A   Clear
12:53 AM 48.2 °F - 44.6 °F 87% 30.10 in 10.0 mi WNW 4.6 mph - N/A   Clear
1:12 AM 46.4 °F - 44.6 °F 93% 30.10 in 10.0 mi Calm Calm - N/A   Clear
1:33 AM 46.4 °F 45.2 °F 42.8 °F 87% 30.11 in 10.0 mi WSW 3.5 mph - N/A   Clear
2:12 AM 48.2 °F - 42.8 °F 82% 30.11 in 10.0 mi Calm Calm - N/A   Clear
2:32 AM 46.4 °F 44.3 °F 42.8 °F 87% 30.11 in 10.0 mi West 4.6 mph - N/A   Clear
2:53 AM 46.4 °F - 42.8 °F 87% 30.11 in 10.0 mi Calm Calm - N/A   Clear
3:12 AM 44.6 °F 42.2 °F 42.8 °F 93% 30.12 in 10.0 mi WSW 4.6 mph - N/A   Clear
3:33 AM 44.6 °F - 42.8 °F 93% 30.11 in 10.0 mi Calm Calm - N/A   Clear
3:52 AM 44.6 °F 43.1 °F 42.8 °F 93% 30.11 in 10.0 mi West 3.5 mph - N/A   Clear
4:12 AM 44.6 °F 43.1 °F 42.8 °F 93% 30.11 in 10.0 mi West 3.5 mph - N/A   Clear
4:32 AM 44.6 °F 41.4 °F 42.8 °F 93% 30.11 in 10.0 mi West 5.8 mph - N/A   Clear
4:52 AM 44.6 °F 41.4 °F 42.8 °F 93% 30.11 in 10.0 mi West 5.8 mph - N/A   Clear
5:13 AM 44.6 °F 40.7 °F 42.8 °F 93% 30.11 in 10.0 mi West 6.9 mph - N/A   Clear
5:32 AM 44.6 °F 43.1 °F 42.8 °F 93% 30.11 in 10.0 mi West 3.5 mph - N/A   Clear
5:52 AM 44.6 °F 41.4 °F 42.8 °F 93% 30.11 in 10.0 mi West 5.8 mph - N/A   Clear
6:13 AM 44.6 °F 42.2 °F 42.8 °F 93% 30.11 in 10.0 mi WNW 4.6 mph - N/A   Clear
6:52 AM 44.6 °F - 42.8 °F 93% 30.11 in 10.0 mi Calm Calm - N/A   Clear
7:13 AM 46.4 °F 45.2 °F 42.8 °F 87% 30.12 in 10.0 mi WNW 3.5 mph - N/A   Clear
7:32 AM 48.2 °F - 44.6 °F 87% 30.12 in 10.0 mi WNW 3.5 mph - N/A   Clear
7:52 AM 51.8 °F - 46.4 °F 82% 30.12 in 10.0 mi WNW 4.6 mph - N/A   Clear
8:13 AM 53.6 °F - 46.4 °F 77% 30.13 in 10.0 mi West 3.5 mph - N/A   Clear
8:32 AM 55.4 °F - 48.2 °F 77% 30.13 in 10.0 mi WNW 4.6 mph - N/A   Clear
8:52 AM 57.2 °F - 48.2 °F 72% 30.13 in 10.0 mi Calm Calm - N/A   Clear
9:12 AM 59.0 °F - 48.2 °F 67% 30.13 in 10.0 mi NW 4.6 mph - N/A   Clear
9:32 AM 60.8 °F - 46.4 °F 59% 30.14 in 10.0 mi NNW 6.9 mph - N/A   Clear
10:12 AM 64.4 °F - 46.4 °F 52% 30.14 in 10.0 mi NW 4.6 mph - N/A   Clear
10:32 AM 64.4 °F - 46.4 °F 52% 30.14 in 10.0 mi WNW 6.9 mph - N/A   Clear
10:53 AM 64.4 °F - 44.6 °F 49% 30.14 in 10.0 mi NW 9.2 mph - N/A   Clear
11:12 AM 66.2 °F - 44.6 °F 46% 30.14 in 10.0 mi NNW 9.2 mph 16.1 mph N/A   Clear
11:32 AM 66.2 °F - 44.6 °F 46% 30.14 in 10.0 mi NNW 10.4 mph 16.1 mph N/A   Clear
11:53 AM 66.2 °F - 44.6 °F 46% 30.14 in 10.0 mi NNW 11.5 mph 16.1 mph N/A   Clear
12:12 PM 68.0 °F - 44.6 °F 43% 30.13 in 10.0 mi North 10.4 mph - N/A   Clear
12:32 PM 68.0 °F - 44.6 °F 43% 30.13 in 10.0 mi NNW 8.1 mph - N/A   Clear
12:52 PM 69.8 °F - 44.6 °F 40% 30.13 in 10.0 mi NNW 9.2 mph - N/A   Clear
1:12 PM 68.0 °F - 42.8 °F 40% 30.12 in 10.0 mi North 8.1 mph - N/A   Clear
1:33 PM 69.8 °F - 44.6 °F 40% 30.11 in 10.0 mi NNW 6.9 mph - N/A   Clear
1:52 PM 69.8 °F - 44.6 °F 40% 30.11 in 10.0 mi NW 5.8 mph - N/A   Clear
2:13 PM 69.8 °F - 44.6 °F 40% 30.10 in 10.0 mi NW 5.8 mph - N/A   Clear
2:33 PM 71.6 °F - 42.8 °F 35% 30.10 in 10.0 mi NW 4.6 mph - N/A   Unknown
2:52 PM 69.8 °F - 44.6 °F 40% 30.09 in 10.0 mi WNW 8.1 mph - N/A   Clear
3:12 PM 71.6 °F - 44.6 °F 38% 30.10 in 10.0 mi NW 4.6 mph - N/A   Clear
3:32 PM 71.6 °F - 42.8 °F 35% 30.09 in 10.0 mi North 4.6 mph - N/A   Clear
3:52 PM 69.8 °F - 42.8 °F 38% 30.09 in 10.0 mi Calm Calm - N/A   Clear
4:12 PM 71.6 °F - 42.8 °F 35% 30.08 in 10.0 mi Calm Calm - N/A   Clear
4:33 PM 71.6 °F - 42.8 °F 35% 30.07 in 10.0 mi WNW 8.1 mph - N/A   Clear
4:52 PM 71.6 °F - 42.8 °F 35% 30.07 in 10.0 mi WNW 3.5 mph - N/A   Clear
5:13 PM 71.6 °F - 42.8 °F 35% 30.06 in 10.0 mi Calm Calm - N/A   Clear
5:33 PM 71.6 °F - 42.8 °F 35% 30.06 in 10.0 mi NNW 5.8 mph - N/A   Clear
5:52 PM 71.6 °F - 39.2 °F 31% 30.06 in 10.0 mi North 4.6 mph - N/A   Clear
6:13 PM 71.6 °F - 42.8 °F 35% 30.06 in 10.0 mi NNW 6.9 mph - N/A   Clear
6:52 PM 69.8 °F - 39.2 °F 33% 30.05 in 10.0 mi NW 3.5 mph - N/A   Clear
7:12 PM 69.8 °F - 44.6 °F 40% 30.05 in 10.0 mi NNW 3.5 mph - N/A   Clear
7:33 PM 68.0 °F - 46.4 °F 46% 30.05 in 10.0 mi NW 3.5 mph - N/A   Clear
7:52 PM 66.2 °F - 50.0 °F 56% 30.05 in 10.0 mi NNW 3.5 mph - N/A   Clear
8:13 PM 64.4 °F - 50.0 °F 59% 30.05 in 10.0 mi North 3.5 mph - N/A   Clear
8:33 PM 60.8 °F - 50.0 °F 68% 30.05 in 10.0 mi Calm Calm - N/A   Clear
8:52 PM 57.2 °F - 51.8 °F 82% 30.06 in 10.0 mi Calm Calm - N/A   Clear
9:13 PM 57.2 °F - 51.8 °F 82% 30.06 in 10.0 mi Calm Calm - N/A   Clear
9:32 PM 57.2 °F - 51.8 °F 82% 30.07 in 10.0 mi Calm Calm - N/A   Clear
9:52 PM 55.4 °F - 50.0 °F 82% 30.06 in 10.0 mi Calm Calm - N/A   Clear
10:13 PM 55.4 °F - 50.0 °F 82% 30.06 in 10.0 mi Calm Calm - N/A   Clear
10:32 PM 51.8 °F - 48.2 °F 88% 30.06 in 10.0 mi Calm Calm - N/A   Clear
10:52 PM 51.8 °F - 48.2 °F 88% 30.06 in 10.0 mi Calm Calm - N/A   Clear
11:13 PM 50.0 °F - 48.2 °F 94% 30.06 in 7.0 mi Calm Calm - N/A   Clear
11:32 PM 51.8 °F - 48.2 °F 88% 30.06 in 10.0 mi Calm Calm - N/A   Clear
11:52 PM 51.8 °F - 46.4 °F 82% 30.06 in 10.0 mi Calm Calm - N/A   Clear